Pagina principale
METAR-TAF:

METAR-TAF

Aeroporti :

Wunstorf, Germania

latitudine: 52-27N, longitudine: 009-26E, altezza: 57 m

Osservazione

Il bollettino è stato emesso 15 minuti fa, alle 13:20 UTC
Vento 5 kt da ovest/nord-ovest
Temperature 32°C
Umidità 34%
Pressione 1020 hPa
Visibilità 10 km o più
Poco nuvoloso ad un'altezza di 6000 ft

METAR: ETNW 231320Z 30005KT 9999 FEW060 32/14 Q1020 BLU+BLU+

Ora: 15:35 (13:35 UTC)

Previsione

Il bollettino è stato emesso 3 ore e 15 minuti fa, alle 10:20 UTC
Previsione valida dal 23 alle 11 UTC al 24 alle 11 UTC
Vento 6 kt da nord-ovest
Visibilità 10 km o più
Poco nuvoloso ad un'altezza di 30000 ft

TAF: ETNW 231020Z 2311/2411 31006KT 9999 NSW FEW300 BY ETGL

Osservazioni e previsioni meteorologiche di più di 4000 aeroporti (messaggi METAR e TAF).

Le stazioni disponibili sono rappresentate dai dischi gialli e rossi sulla carta.

Puntare il mouse per vedere il nome della stazione.

Clicca sopra per visualizzare le osservazioni e previsioni meteorologiche.

Per cambiare la mappa : fare clic sui pulsanti verdi con una croce nera per ingrandire, il pulsante verde con un trattino per diminuire, o sulla freccia verde per le mappe adiacenti.


METAR-TAF: